createdAt,value
2018-06-20T00:00:36.818Z,84.50
2018-06-20T00:03:05.325Z,83.60
2018-06-20T00:05:33.846Z,83.80
2018-06-20T00:08:02.354Z,83.60
2018-06-20T00:10:30.851Z,83.50
2018-06-20T00:12:59.394Z,84.10
2018-06-20T00:15:27.924Z,84.40
2018-06-20T00:17:56.396Z,83.90
2018-06-20T00:20:24.909Z,84.10
2018-06-20T00:22:53.418Z,84.90
2018-06-20T00:25:21.960Z,84.60
2018-06-20T00:27:50.503Z,84.40
2018-06-20T00:30:19.032Z,84.40
2018-06-20T00:32:47.567Z,85.10
2018-06-20T00:35:16.139Z,84.70
2018-06-20T00:37:44.623Z,84.40
2018-06-20T00:40:13.123Z,84.40
2018-06-20T00:42:41.774Z,84.50
2018-06-20T00:45:10.257Z,85.00
2018-06-20T00:47:38.827Z,84.40
2018-06-20T00:50:07.329Z,84.60
2018-06-20T00:52:35.877Z,84.50
2018-06-20T00:55:04.361Z,84.60
2018-06-20T00:57:32.865Z,85.00
2018-06-20T01:00:01.407Z,84.90
2018-06-20T01:02:29.888Z,85.00
2018-06-20T01:04:58.450Z,85.30
2018-06-20T01:07:26.989Z,85.80
2018-06-20T01:09:55.694Z,85.20
2018-06-20T01:12:24.226Z,85.10
2018-06-20T01:14:52.724Z,85.10
2018-06-20T01:17:21.233Z,85.30
2018-06-20T01:19:49.754Z,85.90
2018-06-20T01:22:18.262Z,86.10
2018-06-20T01:24:46.805Z,86.50
2018-06-20T01:27:15.327Z,86.40
2018-06-20T01:29:43.845Z,85.80
2018-06-20T01:32:12.345Z,86.00
2018-06-20T01:34:40.872Z,86.00
2018-06-20T01:37:09.406Z,86.00
2018-06-20T01:39:38.090Z,85.80
2018-06-20T01:42:06.885Z,85.70
2018-06-20T01:44:35.392Z,85.50
2018-06-20T01:47:03.888Z,85.70
2018-06-20T01:49:32.475Z,86.20
2018-06-20T01:52:00.974Z,86.20
2018-06-20T01:54:29.478Z,86.60
2018-06-20T01:56:58.031Z,87.10
2018-06-20T01:59:26.646Z,86.90
2018-06-20T02:01:55.167Z,87.30
2018-06-20T02:04:23.694Z,87.10
2018-06-20T02:06:52.253Z,87.40
2018-06-20T02:09:20.747Z,87.20
2018-06-20T02:11:49.258Z,87.40
2018-06-20T02:14:17.750Z,87.70
2018-06-20T02:16:46.268Z,88.00
2018-06-20T02:19:14.810Z,88.20
2018-06-20T02:21:43.388Z,88.40
2018-06-20T02:24:11.895Z,87.20
2018-06-20T02:26:40.439Z,87.40
2018-06-20T02:29:09.068Z,87.80
2018-06-20T02:31:37.585Z,87.80
2018-06-20T02:34:06.114Z,87.50
2018-06-20T02:36:34.654Z,87.80
2018-06-20T02:39:06.129Z,88.00
2018-06-20T02:41:34.994Z,87.60
2018-06-20T02:44:03.593Z,87.80
2018-06-20T02:46:32.393Z,87.50
2018-06-20T02:49:00.967Z,88.10
2018-06-20T02:51:29.458Z,87.20
2018-06-20T02:53:57.987Z,86.60
2018-06-20T02:56:26.481Z,86.10
2018-06-20T02:58:54.961Z,86.20
2018-06-20T03:01:23.522Z,86.20
2018-06-20T03:03:52.034Z,86.10
2018-06-20T03:06:20.531Z,86.20
2018-06-20T03:08:54.566Z,86.50
2018-06-20T03:11:23.070Z,86.70
2018-06-20T03:13:51.614Z,87.00
2018-06-20T03:16:20.138Z,87.10
2018-06-20T03:18:48.658Z,87.90
2018-06-20T03:21:17.169Z,87.90
2018-06-20T03:23:45.666Z,88.40
2018-06-20T03:26:14.222Z,88.70
2018-06-20T03:28:43.041Z,88.80
2018-06-20T03:31:11.588Z,89.30
2018-06-20T03:33:40.130Z,89.20
2018-06-20T03:36:08.693Z,89.40
2018-06-20T03:38:37.218Z,90.00
2018-06-20T03:41:05.753Z,89.80
2018-06-20T03:43:34.317Z,89.90
2018-06-20T03:46:02.967Z,90.00
2018-06-20T03:48:31.607Z,89.70
2018-06-20T03:51:00.130Z,89.50
2018-06-20T03:53:28.622Z,89.30
2018-06-20T03:55:57.133Z,89.20
2018-06-20T03:58:25.630Z,89.20
2018-06-20T04:00:54.194Z,89.30
2018-06-20T04:03:22.730Z,89.40
2018-06-20T04:05:51.270Z,89.20
2018-06-20T04:08:19.777Z,88.60
2018-06-20T04:10:48.289Z,88.70
2018-06-20T04:13:16.827Z,88.50
2018-06-20T04:15:45.365Z,88.80
2018-06-20T04:18:14.012Z,88.70
2018-06-20T04:20:42.530Z,88.60
2018-06-20T04:23:11.030Z,89.00
2018-06-20T04:25:39.555Z,88.80
2018-06-20T04:28:08.114Z,87.80
2018-06-20T04:30:36.655Z,87.10
2018-06-20T04:33:05.183Z,84.90
2018-06-20T04:35:33.725Z,81.90
2018-06-20T04:38:02.257Z,78.40
2018-06-20T04:40:30.822Z,75.40
2018-06-20T04:42:59.338Z,72.40
2018-06-20T04:45:27.846Z,71.00
2018-06-20T04:47:56.350Z,71.40
2018-06-20T04:50:24.909Z,74.30
2018-06-20T04:52:53.479Z,76.20
2018-06-20T04:55:22.047Z,78.10
2018-06-20T04:57:50.583Z,78.90
2018-06-20T05:00:19.132Z,79.20
2018-06-20T05:02:47.650Z,80.10
2018-06-20T05:05:16.175Z,80.10
2018-06-20T05:07:44.710Z,80.40
2018-06-20T05:10:13.286Z,80.40
2018-06-20T05:12:41.788Z,80.00
2018-06-20T05:15:10.322Z,80.10
2018-06-20T05:17:38.838Z,79.60
2018-06-20T05:20:07.423Z,78.90
2018-06-20T05:22:35.964Z,79.30
2018-06-20T05:25:04.583Z,78.00
2018-06-20T05:27:33.988Z,76.40
2018-06-20T05:30:03.127Z,76.90
2018-06-20T05:32:31.670Z,74.50
2018-06-20T05:35:00.238Z,72.80
2018-06-20T05:37:29.611Z,69.50
2018-06-20T05:39:58.096Z,67.60
2018-06-20T05:42:26.624Z,62.80
2018-06-20T05:44:55.093Z,58.50
2018-06-20T05:47:23.606Z,56.70
2018-06-20T05:49:52.230Z,53.80
2018-06-20T05:52:20.731Z,52.60
2018-06-20T05:54:49.265Z,52.70
2018-06-20T05:57:17.786Z,54.30
2018-06-20T05:59:46.469Z,56.40
2018-06-20T06:02:15.194Z,55.50
2018-06-20T06:04:43.754Z,53.90
2018-06-20T06:07:12.957Z,52.70
2018-06-20T06:09:41.469Z,52.20
2018-06-20T06:12:09.981Z,51.90
2018-06-20T06:14:38.468Z,51.40
2018-06-20T06:17:07.062Z,52.70
2018-06-20T06:19:35.670Z,53.30
2018-06-20T06:22:04.193Z,51.80
2018-06-20T06:24:33.863Z,53.10
2018-06-20T06:29:31.214Z,51.80
2018-06-20T06:31:59.744Z,52.80
2018-06-20T06:34:28.275Z,52.20
2018-06-20T06:36:56.775Z,52.30
2018-06-20T06:39:25.650Z,53.30
2018-06-20T06:41:54.198Z,52.10
2018-06-20T06:44:22.711Z,52.40
2018-06-20T06:46:51.222Z,51.30
2018-06-20T06:49:19.808Z,51.60
2018-06-20T06:51:48.290Z,51.40
2018-06-20T06:54:16.807Z,52.00
2018-06-20T06:56:45.367Z,50.40
2018-06-20T06:59:13.869Z,50.00
2018-06-20T07:01:42.387Z,50.20
2018-06-20T07:04:10.933Z,46.80
2018-06-20T07:06:39.462Z,46.50
2018-06-20T07:09:08.718Z,44.40
2018-06-20T07:11:37.257Z,43.40
2018-06-20T07:14:05.754Z,43.80
2018-06-20T07:16:34.304Z,43.90
2018-06-20T07:19:02.823Z,44.80
2018-06-20T07:21:31.350Z,42.20
2018-06-20T07:24:00.019Z,41.30
2018-06-20T07:26:28.534Z,38.60
2018-06-20T07:28:57.098Z,40.40
2018-06-20T07:31:25.634Z,39.10
2018-06-20T07:33:54.157Z,38.90
2018-06-20T07:36:22.745Z,39.10
2018-06-20T07:38:51.235Z,39.80
2018-06-20T07:41:19.737Z,39.30
2018-06-20T07:43:48.689Z,38.60
2018-06-20T07:46:17.245Z,38.80
2018-06-20T07:48:45.818Z,37.90
2018-06-20T07:51:14.346Z,38.30
2018-06-20T07:53:42.849Z,40.00
2018-06-20T07:56:11.354Z,39.50
2018-06-20T07:58:44.990Z,38.40
2018-06-20T08:03:31.313Z,40.40
2018-06-20T08:06:05.090Z,41.10
2018-06-20T08:08:38.725Z,42.70
2018-06-20T08:11:12.369Z,43.50
2018-06-20T08:13:46.067Z,42.60
2018-06-20T08:16:19.854Z,43.60
2018-06-20T08:18:53.517Z,42.10
2018-06-20T08:21:22.039Z,45.00
2018-06-20T08:23:50.550Z,45.00
2018-06-20T08:26:19.062Z,45.60
2018-06-20T08:28:47.866Z,44.80
2018-06-20T08:31:16.375Z,46.50
2018-06-20T08:33:44.887Z,45.40
2018-06-20T08:36:13.410Z,47.30
2018-06-20T08:38:41.915Z,46.30
2018-06-20T08:41:10.453Z,47.70
2018-06-20T08:43:38.919Z,46.50
2018-06-20T08:46:07.411Z,46.20
2018-06-20T08:48:35.960Z,45.80
2018-06-20T08:51:05.487Z,43.60
2018-06-20T08:53:34.017Z,44.00
2018-06-20T08:56:02.594Z,44.80
2018-06-20T08:58:31.120Z,44.20
2018-06-20T09:01:02.339Z,46.10
2018-06-20T09:03:30.910Z,47.30
2018-06-20T09:06:04.795Z,50.00
2018-06-20T09:08:38.474Z,46.30
2018-06-20T09:13:45.606Z,46.30
2018-06-20T09:16:19.331Z,45.80
2018-06-20T09:18:53.074Z,45.70
2018-06-20T09:21:21.667Z,45.50
2018-06-20T09:23:50.173Z,45.10
2018-06-20T09:26:18.698Z,45.10
2018-06-20T09:28:47.250Z,41.70
2018-06-20T09:31:15.837Z,41.80
2018-06-20T09:33:44.408Z,41.70
2018-06-20T09:36:12.959Z,41.10
2018-06-20T09:38:41.606Z,40.40
2018-06-20T09:41:10.067Z,42.60
2018-06-20T09:43:39.148Z,44.20
2018-06-20T09:46:07.716Z,42.30
2018-06-20T09:48:36.316Z,40.20
2018-06-20T09:51:05.792Z,42.40
2018-06-20T09:53:34.286Z,40.70
2018-06-20T09:56:02.809Z,41.50
2018-06-20T09:58:31.349Z,40.20
2018-06-20T10:01:07.072Z,42.40
2018-06-20T10:03:40.849Z,41.50
2018-06-20T10:06:14.726Z,39.90
2018-06-20T10:08:48.437Z,41.00
2018-06-20T10:11:22.064Z,40.70
2018-06-20T10:13:53.159Z,41.20
2018-06-20T10:16:21.710Z,41.60
2018-06-20T10:18:50.217Z,40.30
2018-06-20T10:21:18.885Z,40.10
2018-06-20T10:23:47.286Z,40.40
2018-06-20T10:26:15.790Z,39.80
2018-06-20T10:28:44.336Z,40.30
2018-06-20T10:31:12.846Z,41.80
2018-06-20T10:33:41.352Z,41.80
2018-06-20T10:36:10.547Z,40.70
2018-06-20T10:38:39.665Z,41.30
2018-06-20T10:41:08.167Z,42.70
2018-06-20T10:43:36.683Z,40.60
2018-06-20T10:46:10.405Z,40.40
2018-06-20T10:48:38.892Z,39.00
2018-06-20T10:51:07.406Z,38.70
2018-06-20T10:53:35.974Z,38.10
2018-06-20T10:56:04.740Z,37.60
2018-06-20T10:58:38.489Z,38.60
2018-06-20T11:01:12.314Z,37.40
2018-06-20T11:06:19.468Z,38.20
2018-06-20T11:08:53.262Z,37.00
2018-06-20T11:11:26.838Z,38.10
2018-06-20T11:13:55.424Z,38.80
2018-06-20T11:16:23.929Z,38.80
2018-06-20T11:18:54.345Z,38.50
2018-06-20T11:21:22.872Z,36.60
2018-06-20T11:23:51.373Z,39.40
2018-06-20T11:28:48.234Z,37.90
2018-06-20T11:31:17.730Z,35.90
2018-06-20T11:33:46.278Z,37.80
2018-06-20T11:36:14.795Z,36.30
2018-06-20T11:38:43.296Z,36.00
2018-06-20T11:41:11.832Z,36.20
2018-06-20T11:43:40.346Z,36.00
2018-06-20T11:46:14.194Z,36.70
2018-06-20T11:48:44.242Z,36.30
2018-06-20T11:51:12.752Z,35.40
2018-06-20T11:53:41.283Z,35.00
2018-06-20T11:56:09.764Z,35.50
2018-06-20T11:58:44.401Z,36.20
2018-06-20T12:01:18.454Z,36.40
2018-06-20T12:03:53.511Z,35.30
2018-06-20T12:06:27.423Z,35.50
2018-06-20T12:09:01.158Z,35.90
2018-06-20T12:11:34.868Z,36.70
2018-06-20T12:14:09.355Z,35.90
2018-06-20T12:16:38.552Z,35.10
2018-06-20T12:19:12.436Z,37.30
2018-06-20T12:21:46.346Z,34.90
2018-06-20T12:24:20.167Z,35.30
2018-06-20T12:26:54.178Z,36.40
2018-06-20T12:29:27.949Z,36.10
2018-06-20T12:32:01.599Z,35.90
2018-06-20T12:34:35.394Z,35.20
2018-06-20T12:37:09.289Z,35.60
2018-06-20T12:39:37.048Z,35.80
2018-06-20T12:42:10.890Z,37.00
2018-06-20T12:44:44.658Z,37.10
2018-06-20T12:47:17.946Z,36.00
2018-06-20T12:49:50.139Z,36.30
2018-06-20T12:52:18.696Z,37.40
2018-06-20T12:54:47.249Z,36.60
2018-06-20T12:57:15.792Z,36.50
2018-06-20T12:59:44.897Z,37.20
2018-06-20T13:02:13.450Z,36.40
2018-06-20T13:04:41.956Z,37.20
2018-06-20T13:07:10.598Z,35.00
2018-06-20T13:09:39.122Z,36.50
2018-06-20T13:14:35.817Z,34.80
2018-06-20T13:17:04.361Z,34.20
2018-06-20T13:19:32.846Z,34.70
2018-06-20T13:22:01.405Z,36.00
2018-06-20T13:24:29.914Z,34.70
2018-06-20T13:26:58.427Z,32.80
2018-06-20T13:29:29.150Z,34.10
2018-06-20T13:32:03.775Z,34.30
2018-06-20T13:34:37.762Z,34.30
2018-06-20T13:37:11.615Z,35.50
2018-06-20T13:39:45.476Z,36.00
2018-06-20T13:42:19.159Z,35.20
2018-06-20T13:44:47.829Z,36.10
2018-06-20T13:47:23.209Z,36.10
2018-06-20T13:49:56.120Z,34.50
2018-06-20T13:52:30.097Z,34.90
2018-06-20T13:54:59.432Z,36.20
2018-06-20T13:57:28.396Z,35.10
2018-06-20T13:59:58.081Z,34.30
2018-06-20T14:02:27.097Z,35.20
2018-06-20T14:04:56.107Z,35.00
2018-06-20T14:07:24.872Z,34.70
2018-06-20T14:09:53.783Z,33.40
2018-06-20T14:12:22.621Z,33.90
2018-06-20T14:14:52.093Z,33.90
2018-06-20T14:17:20.973Z,34.50
2018-06-20T14:19:55.044Z,33.80
2018-06-20T14:22:26.261Z,33.60
2018-06-20T14:24:54.839Z,35.60
2018-06-20T14:27:25.102Z,35.30
2018-06-20T14:29:53.835Z,34.40
2018-06-20T14:32:27.554Z,34.60
2018-06-20T14:35:01.296Z,34.60
2018-06-20T14:37:35.042Z,35.80
2018-06-20T14:40:08.733Z,35.70
2018-06-20T14:42:42.350Z,36.60
2018-06-20T14:45:16.129Z,36.60
2018-06-20T14:50:12.924Z,34.70
2018-06-20T14:52:41.959Z,34.70
2018-06-20T14:55:10.710Z,34.80
2018-06-20T14:57:39.237Z,35.20
2018-06-20T15:00:09.470Z,34.30
2018-06-20T15:02:37.942Z,34.90
2018-06-20T15:05:06.683Z,36.10
2018-06-20T15:07:35.174Z,35.00
2018-06-20T15:10:08.324Z,35.20
2018-06-20T15:12:36.836Z,35.20
2018-06-20T15:15:05.409Z,35.00
2018-06-20T15:17:33.909Z,34.80
2018-06-20T15:20:02.443Z,34.90
2018-06-20T15:22:36.158Z,35.50
2018-06-20T15:25:04.654Z,34.00
2018-06-20T15:27:38.296Z,34.20
2018-06-20T15:30:11.994Z,34.10
2018-06-20T15:32:45.881Z,35.90
2018-06-20T15:35:19.805Z,35.20
2018-06-20T15:37:54.690Z,35.70
2018-06-20T15:40:24.712Z,35.70
2018-06-20T15:42:53.337Z,36.50
2018-06-20T15:45:21.848Z,36.30
2018-06-20T15:47:50.389Z,36.20
2018-06-20T15:50:18.894Z,35.70
2018-06-20T15:52:47.376Z,35.40
2018-06-20T15:55:15.865Z,35.70
2018-06-20T15:57:44.508Z,35.30
2018-06-20T16:00:13.008Z,36.20
2018-06-20T16:02:41.503Z,33.10
2018-06-20T16:05:10.011Z,34.60
2018-06-20T16:10:09.831Z,34.50
2018-06-20T16:12:38.348Z,33.80
2018-06-20T16:15:06.829Z,33.30
2018-06-20T16:17:35.308Z,33.50
2018-06-20T16:22:10.827Z,34.30
2018-06-20T16:24:44.513Z,35.40
2018-06-20T16:27:18.251Z,34.60
2018-06-20T16:29:51.882Z,35.20
2018-06-20T16:32:20.394Z,36.00
2018-06-20T16:34:48.925Z,35.50
2018-06-20T16:37:17.470Z,36.20
2018-06-20T16:39:46.182Z,34.40
2018-06-20T16:42:15.243Z,35.10
2018-06-20T16:44:43.789Z,35.50
2018-06-20T16:47:12.293Z,36.10
2018-06-20T16:50:43.863Z,36.10
2018-06-20T16:53:12.343Z,35.60
2018-06-20T16:55:40.912Z,35.10
2018-06-20T16:58:18.543Z,35.40
2018-06-20T17:01:04.671Z,36.10
2018-06-20T17:03:33.248Z,36.10
2018-06-20T17:06:01.802Z,36.70
2018-06-20T17:08:30.493Z,37.00
2018-06-20T17:10:59.103Z,37.10
2018-06-20T17:13:32.964Z,37.20
2018-06-20T17:18:13.169Z,36.30
2018-06-20T17:20:47.451Z,37.50
2018-06-20T17:23:21.370Z,36.20
2018-06-20T17:25:49.873Z,36.60
2018-06-20T17:28:18.362Z,37.20
2018-06-20T17:30:47.537Z,38.40
2018-06-20T17:33:16.730Z,39.20
2018-06-20T17:35:45.214Z,40.10
2018-06-20T17:38:13.755Z,40.00
2018-06-20T17:40:42.233Z,40.30
2018-06-20T17:43:10.727Z,40.50
2018-06-20T17:45:39.239Z,40.80
2018-06-20T17:48:07.898Z,41.20
2018-06-20T17:50:36.573Z,41.10
2018-06-20T17:53:06.880Z,41.70
2018-06-20T17:55:35.572Z,41.80
2018-06-20T17:58:05.101Z,41.80
2018-06-20T18:00:37.909Z,42.10
2018-06-20T18:03:07.185Z,42.40
2018-06-20T18:05:40.887Z,42.80
2018-06-20T18:08:15.054Z,43.20
2018-06-20T18:10:49.852Z,43.00
2018-06-20T18:13:18.421Z,43.00
2018-06-20T18:15:52.144Z,43.20
2018-06-20T18:18:20.782Z,43.40
2018-06-20T18:20:49.360Z,43.60
2018-06-20T18:23:17.866Z,44.00
2018-06-20T18:25:46.417Z,44.30
2018-06-20T18:28:16.483Z,44.70
2018-06-20T18:30:45.918Z,45.00
2018-06-20T18:33:14.425Z,45.20
2018-06-20T18:35:43.096Z,45.20
2018-06-20T18:38:13.145Z,45.20
2018-06-20T18:40:41.651Z,45.70
2018-06-20T18:43:10.303Z,46.10
2018-06-20T18:45:38.877Z,46.50
2018-06-20T18:48:12.495Z,46.60
2018-06-20T18:50:41.082Z,50.90
2018-06-20T18:53:09.683Z,52.60
2018-06-20T18:55:38.230Z,53.60
2018-06-20T18:58:12.225Z,54.50
2018-06-20T19:00:45.903Z,55.70
2018-06-20T19:03:19.698Z,57.30
2018-06-20T19:05:53.763Z,58.40
2018-06-20T19:08:27.583Z,59.10
2018-06-20T19:10:56.081Z,59.50
2018-06-20T19:13:24.694Z,59.80
2018-06-20T19:15:53.152Z,59.90
2018-06-20T19:18:22.646Z,60.10
2018-06-20T19:20:51.162Z,60.20
2018-06-20T19:23:19.709Z,61.00
2018-06-20T19:25:48.280Z,61.50
2018-06-20T19:28:17.571Z,62.50
2018-06-20T19:30:47.680Z,63.30
2018-06-20T19:33:16.235Z,63.70
2018-06-20T19:35:44.715Z,63.90
2018-06-20T19:38:20.330Z,63.70
2018-06-20T19:40:48.854Z,63.90
2018-06-20T19:43:18.081Z,63.60
2018-06-20T19:45:47.808Z,62.50
2018-06-20T19:48:16.323Z,62.00
2018-06-20T19:50:44.836Z,61.80
2018-06-20T19:53:13.354Z,61.00
2018-06-20T19:55:41.974Z,61.70
2018-06-20T19:58:10.452Z,61.80
2018-06-20T20:00:39.876Z,62.30
2018-06-20T20:03:08.634Z,61.10
2018-06-20T20:05:37.220Z,62.10
2018-06-20T20:08:05.741Z,61.80
2018-06-20T20:10:34.239Z,61.80
2018-06-20T20:13:02.724Z,62.20
2018-06-20T20:15:31.255Z,62.90
2018-06-20T20:17:59.800Z,63.10
2018-06-20T20:20:28.365Z,63.90
2018-06-20T20:22:56.850Z,63.50
2018-06-20T20:25:25.344Z,63.20
2018-06-20T20:27:53.847Z,63.20
2018-06-20T20:30:22.366Z,64.10
2018-06-20T20:32:50.903Z,64.20
2018-06-20T20:35:22.366Z,64.70
2018-06-20T20:37:50.871Z,64.90
2018-06-20T20:40:19.372Z,65.00
2018-06-20T20:42:47.910Z,65.10
2018-06-20T20:45:16.435Z,65.30
2018-06-20T20:47:44.964Z,65.40
2018-06-20T20:50:13.487Z,65.20
2018-06-20T20:52:42.045Z,65.50
2018-06-20T20:55:10.555Z,66.10
2018-06-20T20:57:39.096Z,65.40
2018-06-20T21:00:08.215Z,66.30
2018-06-20T21:02:36.756Z,66.70
2018-06-20T21:05:05.566Z,67.20
2018-06-20T21:07:34.137Z,68.20
2018-06-20T21:10:02.615Z,69.30
2018-06-20T21:12:31.111Z,69.80
2018-06-20T21:14:59.617Z,70.70
2018-06-20T21:17:28.115Z,70.50
2018-06-20T21:19:56.786Z,70.90
2018-06-20T21:22:25.266Z,71.20
2018-06-20T21:24:53.728Z,71.60
2018-06-20T21:27:22.267Z,72.30
2018-06-20T21:29:50.782Z,72.80
2018-06-20T21:32:20.321Z,72.30
2018-06-20T21:34:48.850Z,72.50
2018-06-20T21:37:17.354Z,72.90
2018-06-20T21:39:45.935Z,72.80
2018-06-20T21:42:14.474Z,73.20
2018-06-20T21:44:46.160Z,73.60
2018-06-20T21:47:14.684Z,72.70
2018-06-20T21:49:43.161Z,72.30
2018-06-20T21:52:11.654Z,72.50
2018-06-20T21:54:40.215Z,72.40
2018-06-20T21:57:08.741Z,72.40
2018-06-20T21:59:37.339Z,71.90
2018-06-20T22:02:05.871Z,72.00
2018-06-20T22:04:34.398Z,70.80
2018-06-20T22:07:02.923Z,71.30
2018-06-20T22:09:31.521Z,71.70
2018-06-20T22:11:59.967Z,72.00
2018-06-20T22:14:28.516Z,72.00
2018-06-20T22:16:57.023Z,72.20
2018-06-20T22:19:25.584Z,72.70
2018-06-20T22:21:54.105Z,73.00
2018-06-20T22:24:22.617Z,73.70
2018-06-20T22:26:51.118Z,74.10
2018-06-20T22:29:19.642Z,74.00
2018-06-20T22:31:48.438Z,74.20
2018-06-20T22:34:16.962Z,74.60
2018-06-20T22:36:45.509Z,74.70
2018-06-20T22:39:14.031Z,75.40
2018-06-20T22:41:42.587Z,75.60
2018-06-20T22:44:11.099Z,75.70
2018-06-20T22:46:39.657Z,75.40
2018-06-20T22:49:08.750Z,75.30
2018-06-20T22:51:37.521Z,75.20
2018-06-20T22:54:06.052Z,75.10
2018-06-20T22:56:34.601Z,75.20
2018-06-20T22:59:06.065Z,75.40
2018-06-20T23:01:34.558Z,75.40
2018-06-20T23:04:03.089Z,75.60
2018-06-20T23:06:31.610Z,75.60
2018-06-20T23:09:00.175Z,76.20
2018-06-20T23:11:31.407Z,76.30
2018-06-20T23:13:59.914Z,76.60
2018-06-20T23:16:28.411Z,76.50
2018-06-20T23:18:56.941Z,77.00
2018-06-20T23:21:25.444Z,77.50
2018-06-20T23:23:53.935Z,77.60
2018-06-20T23:26:22.469Z,77.90
2018-06-20T23:28:51.214Z,78.00
2018-06-20T23:31:19.714Z,78.00
2018-06-20T23:33:48.239Z,78.00
2018-06-20T23:36:16.748Z,78.00
2018-06-20T23:38:45.299Z,78.10
2018-06-20T23:41:14.086Z,78.40
2018-06-20T23:43:43.111Z,78.40
2018-06-20T23:46:11.800Z,78.80
2018-06-20T23:48:40.411Z,78.70
2018-06-20T23:51:09.155Z,78.80
2018-06-20T23:53:37.786Z,79.00
2018-06-20T23:56:06.310Z,79.50
2018-06-20T23:58:34.838Z,79.90
